createdAt,value
2022-08-02T00:02:09.968Z,99924.81
2022-08-02T00:07:12.069Z,99909.34
2022-08-02T00:12:14.160Z,99907.28
2022-08-02T00:17:15.964Z,99911.53
2022-08-02T00:22:17.647Z,99905.25
2022-08-02T00:27:19.308Z,99909.00
2022-08-02T00:32:24.433Z,99912.13
2022-08-02T00:37:26.138Z,99928.22
2022-08-02T00:42:27.848Z,99922.19
2022-08-02T00:47:29.572Z,99924.69
2022-08-02T00:52:31.293Z,99913.03
2022-08-02T00:57:33.027Z,99918.84
2022-08-02T01:02:34.712Z,99923.44
2022-08-02T01:07:36.390Z,99908.19
2022-08-02T01:12:38.069Z,99912.38
2022-08-02T01:18:04.389Z,99905.44
2022-08-02T01:23:05.978Z,99904.25
2022-08-02T01:28:35.071Z,99920.47
2022-08-02T01:33:44.029Z,99914.59
2022-08-02T01:38:49.800Z,99909.34
2022-08-02T01:43:56.869Z,99918.97
2022-08-02T01:49:01.918Z,99932.56
2022-08-02T01:54:04.124Z,99933.59
2022-08-02T01:59:08.408Z,99928.19
2022-08-02T02:04:11.952Z,99928.19
2022-08-02T02:09:15.810Z,99942.16
2022-08-02T02:14:19.200Z,99935.06
2022-08-02T02:19:22.809Z,99937.97
2022-08-02T02:24:24.665Z,99934.06
2022-08-02T02:29:29.892Z,99939.72
2022-08-02T02:34:37.843Z,99937.03
2022-08-02T02:39:42.106Z,99942.28
2022-08-02T02:44:46.250Z,99951.44
2022-08-02T02:49:49.213Z,99955.59
2022-08-02T02:54:51.867Z,99953.66
2022-08-02T02:59:54.947Z,99958.16
2022-08-02T03:04:58.367Z,99959.56
2022-08-02T03:10:01.024Z,99968.59
2022-08-02T03:15:06.557Z,99981.47
2022-08-02T03:20:20.077Z,99977.91
2022-08-02T03:25:21.725Z,99976.16
2022-08-02T03:30:26.961Z,99974.25
2022-08-02T03:35:28.712Z,99979.19
2022-08-02T03:40:31.522Z,99969.88
2022-08-02T03:45:33.945Z,99980.03
2022-08-02T03:50:37.482Z,99972.22
2022-08-02T03:55:40.356Z,99974.38
2022-08-02T04:00:42.131Z,99966.88
2022-08-02T04:06:01.030Z,99964.19
2022-08-02T04:11:25.313Z,99972.13
2022-08-02T04:16:50.276Z,99985.84
2022-08-02T04:21:54.018Z,99987.13
2022-08-02T04:27:19.360Z,100003.47
2022-08-02T04:32:21.017Z,100018.09
2022-08-02T04:37:22.785Z,100018.06
2022-08-02T04:42:26.333Z,100023.25
2022-08-02T04:48:02.300Z,100025.59
2022-08-02T04:52:49.776Z,100033.56
2022-08-02T04:57:57.946Z,100035.06
2022-08-02T05:03:00.566Z,100041.13
2022-08-02T05:08:02.583Z,100036.09
2022-08-02T05:13:05.718Z,100040.44
2022-08-02T05:18:07.465Z,100035.00
2022-08-02T05:23:09.145Z,100038.97
2022-08-02T05:28:11.725Z,100032.88
2022-08-02T05:33:13.669Z,100037.81
2022-08-02T05:38:15.348Z,100035.19
2022-08-02T05:43:17.435Z,100041.69
2022-08-02T05:48:19.224Z,100029.00
2022-08-02T05:53:36.168Z,100022.81
2022-08-02T05:58:53.502Z,100039.00
2022-08-02T06:03:58.284Z,100040.13
2022-08-02T06:09:04.022Z,100043.41
2022-08-02T06:14:07.457Z,100050.22
2022-08-02T06:19:09.494Z,100045.00
2022-08-02T06:24:13.130Z,100048.56
2022-08-02T06:29:15.409Z,100054.06
2022-08-02T06:34:17.092Z,100055.00
2022-08-02T06:39:28.239Z,100055.94
2022-08-02T06:44:47.951Z,100041.31
2022-08-02T06:49:54.698Z,100043.78
2022-08-02T06:55:01.328Z,100042.53
2022-08-02T07:00:08.677Z,100043.47
2022-08-02T07:05:10.693Z,100033.94
2022-08-02T07:10:14.582Z,100036.78
2022-08-02T07:15:18.371Z,100042.22
2022-08-02T07:20:20.992Z,100036.91
2022-08-02T07:25:22.885Z,100036.63
2022-08-02T07:30:24.859Z,100040.19
2022-08-02T07:35:26.913Z,100026.31
2022-08-02T07:40:32.063Z,100011.03
2022-08-02T07:45:35.743Z,100011.13
2022-08-02T07:50:38.073Z,100009.47
2022-08-02T07:55:40.765Z,100010.41
2022-08-02T08:00:43.778Z,99999.34
2022-08-02T08:05:45.519Z,99988.13
2022-08-02T08:10:47.883Z,99997.00
2022-08-02T08:15:51.494Z,99986.97
2022-08-02T08:20:54.303Z,99976.69
2022-08-02T08:25:56.867Z,99976.25
2022-08-02T08:30:58.782Z,99971.44
2022-08-02T08:36:02.506Z,99970.28
2022-08-02T08:41:04.533Z,99970.28
2022-08-02T08:46:22.913Z,99963.00
2022-08-02T08:51:26.027Z,99963.13
2022-08-02T08:56:34.896Z,99958.81
2022-08-02T09:01:50.251Z,99955.00
2022-08-02T09:06:52.646Z,99952.13
2022-08-02T09:11:54.426Z,99955.31
2022-08-02T09:17:08.331Z,99942.00
2022-08-02T09:22:12.045Z,99950.78
2022-08-02T09:27:18.876Z,99956.09
2022-08-02T09:32:21.091Z,99950.31
2022-08-02T09:37:30.376Z,99943.81
2022-08-02T09:42:32.065Z,99932.47
2022-08-02T09:47:37.459Z,99935.03
2022-08-02T09:52:43.463Z,99924.44
2022-08-02T09:57:50.298Z,99926.88
2022-08-02T10:03:07.873Z,99906.16
2022-08-02T10:08:09.916Z,99913.28
2022-08-02T10:13:12.067Z,99899.97
2022-08-02T10:18:37.780Z,99898.66
2022-08-02T10:23:43.468Z,99902.72
2022-08-02T10:28:50.048Z,99902.25
2022-08-02T10:33:54.179Z,99896.56
2022-08-02T10:38:58.752Z,99888.41
2022-08-02T10:44:01.092Z,99882.16
2022-08-02T10:54:39.913Z,99861.31
2022-08-02T10:59:41.815Z,99859.22
2022-08-02T11:04:43.547Z,99859.59
2022-08-02T11:09:47.703Z,99862.66
2022-08-02T11:14:59.489Z,99854.88
2022-08-02T11:20:13.009Z,99850.91
2022-08-02T11:25:23.863Z,99857.09
2022-08-02T11:30:27.238Z,99856.94
2022-08-02T11:35:34.045Z,99859.84
2022-08-02T11:40:38.670Z,99853.34
2022-08-02T11:45:40.420Z,99853.41
2022-08-02T11:50:42.112Z,99862.41
2022-08-02T11:55:43.834Z,99847.34
2022-08-02T12:00:47.114Z,99840.75
2022-08-02T12:06:04.931Z,99834.06
2022-08-02T12:11:07.973Z,99833.69
2022-08-02T12:16:30.566Z,99832.75
2022-08-02T12:21:32.275Z,99824.09
2022-08-02T12:26:47.395Z,99808.59
2022-08-02T12:31:57.137Z,99806.28
2022-08-02T12:37:09.631Z,99798.81
2022-08-02T12:42:14.148Z,99808.91
2022-08-02T12:47:16.223Z,99798.06
2022-08-02T12:52:22.312Z,99792.72
2022-08-02T12:57:25.218Z,99800.59
2022-08-02T13:02:26.949Z,99790.84
2022-08-02T13:07:28.687Z,99784.19
2022-08-02T13:12:30.340Z,99778.28
2022-08-02T13:17:32.021Z,99776.72
2022-08-02T13:22:33.853Z,99767.97
2022-08-02T13:27:36.643Z,99782.56
2022-08-02T13:32:38.289Z,99769.53
2022-08-02T13:37:41.949Z,99760.59
2022-08-02T13:42:43.876Z,99760.16
2022-08-02T13:48:04.634Z,99764.41
2022-08-02T13:53:07.204Z,99753.31
2022-08-02T13:58:09.767Z,99757.38
2022-08-02T14:03:12.113Z,99753.66
2022-08-02T14:08:16.702Z,99740.91
2022-08-02T14:13:19.666Z,99734.50
2022-08-02T14:18:22.551Z,99739.94
2022-08-02T14:23:50.703Z,99745.22
2022-08-02T14:28:45.998Z,99736.03
2022-08-02T14:33:51.640Z,99728.63
2022-08-02T14:38:53.340Z,99718.91
2022-08-02T14:44:04.218Z,99710.03
2022-08-02T14:49:07.844Z,99715.16
2022-08-02T14:54:11.677Z,99725.22
2022-08-02T14:59:13.664Z,99716.41
2022-08-02T15:04:15.505Z,99718.72
2022-08-02T15:09:17.385Z,99721.63
2022-08-02T15:14:25.310Z,99709.69
2022-08-02T15:19:56.973Z,99705.72
2022-08-02T15:24:50.485Z,99701.38
2022-08-02T15:29:52.361Z,99698.00
2022-08-02T15:34:53.989Z,99692.06
2022-08-02T15:39:55.709Z,99692.91
2022-08-02T15:44:57.439Z,99701.06
2022-08-02T15:49:59.099Z,99699.19
2022-08-02T15:55:07.435Z,99697.22
2022-08-02T16:00:14.074Z,99693.53
2022-08-02T16:05:21.667Z,99695.69
2022-08-02T16:10:23.522Z,99692.41
2022-08-02T16:15:25.181Z,99688.91
2022-08-02T16:20:26.815Z,99686.75
2022-08-02T16:25:28.582Z,99683.94
2022-08-02T16:30:30.297Z,99682.09
2022-08-02T16:35:32.135Z,99686.44
2022-08-02T16:40:34.504Z,99685.69
2022-08-02T16:45:36.513Z,99681.47
2022-08-02T16:50:38.454Z,99690.44
2022-08-02T16:55:40.162Z,99688.47
2022-08-02T17:00:53.722Z,99693.72
2022-08-02T17:05:56.736Z,99681.19
2022-08-02T17:10:59.009Z,99682.94
2022-08-02T17:16:25.964Z,99692.97
2022-08-02T17:21:28.326Z,99690.28
2022-08-02T17:26:30.181Z,99701.97
2022-08-02T17:36:54.223Z,99694.84
2022-08-02T17:41:56.812Z,99700.53
2022-08-02T17:46:59.403Z,99706.94
2022-08-02T17:52:48.101Z,99703.44
2022-08-02T17:57:23.617Z,99701.75
2022-08-02T18:02:52.626Z,99702.41
2022-08-02T18:08:07.259Z,99704.97
2022-08-02T18:13:09.067Z,99696.97
2022-08-02T18:18:10.857Z,99704.25
2022-08-02T18:23:14.143Z,99709.00
2022-08-02T18:28:15.850Z,99714.31
2022-08-02T18:33:57.911Z,99716.31
2022-08-02T18:38:39.963Z,99724.09
2022-08-02T18:43:47.388Z,99719.94
2022-08-02T18:48:49.718Z,99722.16
2022-08-02T18:53:53.342Z,99725.66
2022-08-02T18:58:56.189Z,99729.63
2022-08-02T19:03:58.759Z,99734.28
2022-08-02T19:09:12.589Z,99729.41
2022-08-02T19:14:19.185Z,99739.41
2022-08-02T19:19:29.556Z,99749.56
2022-08-02T19:24:31.262Z,99747.84
2022-08-02T19:29:42.766Z,99751.81
2022-08-02T19:34:50.837Z,99747.94
2022-08-02T19:39:52.566Z,99751.09
2022-08-02T19:44:54.780Z,99761.72
2022-08-02T19:49:57.844Z,99758.09
2022-08-02T19:55:58.372Z,99771.88
2022-08-02T20:00:21.704Z,99775.66
2022-08-02T20:10:26.609Z,99788.13
2022-08-02T20:15:55.994Z,99784.13
2022-08-02T20:20:50.786Z,99787.25
2022-08-02T20:25:54.440Z,99793.66
2022-08-02T20:30:56.186Z,99790.97
2022-08-02T20:35:57.858Z,99804.00
2022-08-02T20:40:59.911Z,99796.78
2022-08-02T20:46:01.664Z,99801.47
2022-08-02T20:51:09.767Z,99808.94
2022-08-02T20:56:14.125Z,99801.34
2022-08-02T21:01:15.964Z,99796.28
2022-08-02T21:06:17.627Z,99796.72
2022-08-02T21:11:25.589Z,99793.72
2022-08-02T21:16:35.584Z,99783.59
2022-08-02T21:21:37.970Z,99790.75
2022-08-02T21:26:39.605Z,99788.47
2022-08-02T21:31:41.951Z,99793.00
2022-08-02T21:36:45.106Z,99790.38
2022-08-02T21:41:47.476Z,99793.13
2022-08-02T21:46:51.983Z,99795.03
2022-08-02T21:51:54.668Z,99784.47
2022-08-02T21:56:56.337Z,99798.00
2022-08-02T22:01:58.316Z,99796.59
2022-08-02T22:07:00.228Z,99795.63
2022-08-02T22:12:02.227Z,99793.13
2022-08-02T22:17:08.837Z,99791.00
2022-08-02T22:22:11.221Z,99786.22
2022-08-02T22:27:13.752Z,99797.69
2022-08-02T22:32:35.440Z,99797.91
2022-08-02T22:38:17.418Z,99808.69
2022-08-02T22:43:00.930Z,99823.41
2022-08-02T22:48:03.711Z,99808.97
2022-08-02T22:53:05.405Z,99811.97
2022-08-02T22:58:07.119Z,99816.88
2022-08-02T22:58:38.929Z,99699.75
2022-08-02T23:03:08.815Z,99820.75
2022-08-02T23:08:10.514Z,99817.94
2022-08-02T23:13:12.266Z,99817.56
2022-08-02T23:18:32.624Z,99816.22
2022-08-02T23:23:34.276Z,99820.47
2022-08-02T23:28:36.147Z,99817.19
2022-08-02T23:33:37.788Z,99822.03
2022-08-02T23:39:00.237Z,99828.78
2022-08-02T23:44:15.843Z,99829.59
2022-08-02T23:49:18.230Z,99825.44
2022-08-02T23:54:20.584Z,99822.16
2022-08-02T23:59:22.267Z,99831.09
